createdAt,value
2022-10-20T00:00:32.519Z,6.10
2022-10-20T00:06:07.199Z,3.80
2022-10-20T00:11:13.984Z,5.80
2022-10-20T00:16:18.936Z,4.60
2022-10-20T00:21:27.571Z,3.60
2022-10-20T00:26:32.875Z,3.30
2022-10-20T00:31:36.242Z,7.50
2022-10-20T00:36:40.888Z,5.20
2022-10-20T00:41:44.097Z,5.90
2022-10-20T00:46:47.751Z,4.10
2022-10-20T00:51:55.105Z,5.50
2022-10-20T00:56:59.983Z,3.30
2022-10-20T01:02:08.697Z,3.10
2022-10-20T01:07:12.265Z,2.90
2022-10-20T01:12:41.241Z,3.80
2022-10-20T01:18:03.596Z,3.10
2022-10-20T01:23:18.890Z,4.50
2022-10-20T01:28:47.700Z,3.30
2022-10-20T01:34:02.413Z,2.90
2022-10-20T01:39:25.322Z,4.30
2022-10-20T01:44:31.195Z,5.50
2022-10-20T01:49:34.825Z,6.50
2022-10-20T01:54:38.264Z,3.70
2022-10-20T02:00:09.724Z,7.50
2022-10-20T02:05:47.835Z,6.50
2022-10-20T02:10:57.751Z,9.40
2022-10-20T02:16:07.889Z,9.80
2022-10-20T02:21:12.301Z,11.70
2022-10-20T02:26:20.663Z,14.10
2022-10-20T02:31:25.402Z,15.50
2022-10-20T02:36:30.292Z,6.90
2022-10-20T02:41:34.175Z,6.40
2022-10-20T02:46:37.487Z,6.20
2022-10-20T02:51:40.900Z,8.60
2022-10-20T02:56:44.215Z,6.50
2022-10-20T03:01:48.218Z,6.70
2022-10-20T03:06:51.669Z,7.60
2022-10-20T03:11:55.164Z,7.20
2022-10-20T03:16:58.482Z,6.40
2022-10-20T03:22:02.016Z,6.30
2022-10-20T03:27:05.514Z,5.50
2022-10-20T03:32:08.736Z,6.10
2022-10-20T03:37:12.052Z,6.30
2022-10-20T03:42:16.103Z,5.00
2022-10-20T03:47:19.374Z,5.50
2022-10-20T03:52:22.789Z,6.40
2022-10-20T03:57:26.101Z,6.80
2022-10-20T04:02:43.457Z,5.20
2022-10-20T04:07:47.586Z,7.20
2022-10-20T04:12:50.850Z,4.90
2022-10-20T04:17:54.403Z,8.20
2022-10-20T04:22:57.673Z,7.30
2022-10-20T04:28:01.126Z,6.50
2022-10-20T04:33:04.848Z,8.00
2022-10-20T04:38:09.316Z,5.70
2022-10-20T04:43:12.700Z,9.70
2022-10-20T04:48:17.061Z,10.60
2022-10-20T04:53:20.350Z,13.30
2022-10-20T04:58:25.352Z,11.70
2022-10-20T05:03:28.711Z,8.60
2022-10-20T05:08:32.039Z,9.20
2022-10-20T05:13:35.953Z,18.40
2022-10-20T05:18:40.794Z,18.10
2022-10-20T05:23:45.411Z,21.60
2022-10-20T05:28:51.102Z,29.10
2022-10-20T05:33:57.284Z,18.90
2022-10-20T05:39:00.698Z,28.60
2022-10-20T05:44:08.736Z,33.30
2022-10-20T05:54:39.001Z,32.00
2022-10-20T05:59:42.510Z,36.20
2022-10-20T06:04:47.754Z,46.10
2022-10-20T06:09:52.131Z,69.80
2022-10-20T06:14:55.421Z,77.40
2022-10-20T06:19:58.682Z,66.10
2022-10-20T06:25:02.043Z,26.40
2022-10-20T06:30:06.851Z,18.90
2022-10-20T06:35:10.078Z,25.80
2022-10-20T06:40:13.966Z,12.70
2022-10-20T06:45:17.882Z,8.40
2022-10-20T06:50:21.364Z,14.00
2022-10-20T06:55:24.630Z,19.50
2022-10-20T07:00:28.076Z,40.10
2022-10-20T07:05:31.603Z,23.70
2022-10-20T07:10:34.913Z,44.40
2022-10-20T07:15:38.156Z,33.80
2022-10-20T07:20:41.427Z,54.10
2022-10-20T07:25:44.906Z,42.60
2022-10-20T07:30:48.880Z,28.40
2022-10-20T07:35:52.265Z,15.10
2022-10-20T07:41:03.260Z,11.90
2022-10-20T07:46:07.811Z,10.40
2022-10-20T07:51:31.200Z,9.40
2022-10-20T07:56:41.993Z,8.60
2022-10-20T08:01:45.378Z,12.10
2022-10-20T08:06:48.757Z,10.70
2022-10-20T08:11:55.328Z,9.20
2022-10-20T08:17:01.147Z,19.20
2022-10-20T08:22:04.490Z,28.20
2022-10-20T08:27:07.798Z,38.10
2022-10-20T08:32:13.169Z,38.50
2022-10-20T08:37:16.486Z,31.90
2022-10-20T08:42:19.989Z,40.10
2022-10-20T08:47:37.581Z,39.30
2022-10-20T08:52:43.293Z,32.50
2022-10-20T08:57:49.689Z,26.40
2022-10-20T09:02:56.579Z,27.90
2022-10-20T09:07:59.997Z,25.50
2022-10-20T09:13:30.441Z,19.60
2022-10-20T09:18:35.201Z,17.50
2022-10-20T09:29:14.705Z,10.50
2022-10-20T09:34:26.363Z,8.50
2022-10-20T09:39:39.650Z,7.20
2022-10-20T09:44:56.872Z,9.40
2022-10-20T09:50:08.995Z,8.40
2022-10-20T09:55:35.241Z,9.80
2022-10-20T10:00:47.206Z,5.60
2022-10-20T10:06:00.909Z,8.00
2022-10-20T10:11:18.862Z,10.40
2022-10-20T10:16:24.801Z,8.40
2022-10-20T10:21:41.979Z,6.50
2022-10-20T10:26:45.794Z,8.60
2022-10-20T10:32:01.096Z,6.40
2022-10-20T10:37:04.819Z,9.30
2022-10-20T10:42:46.021Z,8.30
2022-10-20T10:48:44.005Z,7.70
2022-10-20T10:54:33.600Z,9.40
2022-10-20T10:59:43.162Z,8.00
2022-10-20T11:04:58.204Z,7.80
2022-10-20T11:10:10.982Z,10.70
2022-10-20T11:15:33.240Z,8.40
2022-10-20T11:20:55.284Z,18.70
2022-10-20T11:26:29.254Z,5.70
2022-10-20T11:31:55.567Z,9.80
2022-10-20T11:37:13.324Z,5.30
2022-10-20T11:42:31.940Z,19.50
2022-10-20T11:47:41.907Z,9.50
2022-10-20T11:53:28.278Z,8.90
2022-10-20T11:58:43.740Z,4.30
2022-10-20T12:04:05.729Z,5.70
2022-10-20T12:09:48.121Z,3.40
2022-10-20T12:15:01.196Z,3.80
2022-10-20T12:20:22.976Z,5.00
2022-10-20T12:25:26.456Z,5.10
2022-10-20T12:30:38.888Z,3.90
2022-10-20T12:36:14.331Z,4.40
2022-10-20T12:41:35.184Z,3.60
2022-10-20T12:46:51.997Z,3.10
2022-10-20T12:51:59.150Z,5.50
2022-10-20T12:57:26.686Z,5.50
2022-10-20T13:02:33.151Z,6.20
2022-10-20T13:07:48.767Z,7.80
2022-10-20T13:12:54.841Z,5.20
2022-10-20T13:18:14.029Z,9.30
2022-10-20T13:23:23.994Z,9.20
2022-10-20T13:28:32.840Z,11.20
2022-10-20T13:34:03.330Z,9.80
2022-10-20T13:39:52.543Z,9.00
2022-10-20T13:45:25.687Z,6.50
2022-10-20T13:50:40.880Z,6.70
2022-10-20T13:56:08.586Z,10.50
2022-10-20T14:01:23.536Z,4.90
2022-10-20T14:06:36.783Z,6.20
2022-10-20T14:11:41.906Z,6.60
2022-10-20T14:16:56.205Z,6.70
2022-10-20T14:22:23.786Z,4.90
2022-10-20T14:27:31.714Z,8.90
2022-10-20T14:32:40.897Z,6.50
2022-10-20T14:37:52.770Z,5.70
2022-10-20T14:43:15.445Z,8.20
2022-10-20T14:48:18.950Z,9.80
2022-10-20T14:53:33.623Z,9.60
2022-10-20T14:58:57.007Z,10.20
2022-10-20T15:04:24.785Z,13.60
2022-10-20T15:09:35.073Z,15.30
2022-10-20T15:14:39.712Z,11.20
2022-10-20T15:19:43.282Z,7.70
2022-10-20T15:24:50.194Z,5.90
2022-10-20T15:29:53.684Z,15.70
2022-10-20T15:34:57.126Z,11.80
2022-10-20T15:40:00.703Z,13.30
2022-10-20T15:45:21.816Z,12.60
2022-10-20T15:50:25.703Z,13.80
2022-10-20T15:55:33.729Z,18.30
2022-10-20T16:00:38.368Z,16.10
2022-10-20T16:05:41.899Z,16.40
2022-10-20T16:10:45.545Z,55.60
2022-10-20T16:15:49.096Z,51.90
2022-10-20T16:20:52.675Z,26.80
2022-10-20T16:25:56.181Z,25.10
2022-10-20T16:31:06.325Z,27.70
2022-10-20T16:36:13.957Z,33.60
2022-10-20T16:41:18.607Z,38.70
2022-10-20T16:46:23.247Z,32.00
2022-10-20T16:51:26.801Z,20.20
2022-10-20T16:56:30.777Z,21.30
2022-10-20T17:01:34.412Z,21.90
2022-10-20T17:06:38.259Z,26.00
2022-10-20T17:11:41.789Z,48.70
2022-10-20T17:16:47.623Z,35.20
2022-10-20T17:21:55.808Z,37.70
2022-10-20T17:26:59.653Z,32.10
2022-10-20T17:32:03.297Z,22.00
2022-10-20T17:37:06.810Z,22.20
2022-10-20T17:42:10.468Z,22.40
2022-10-20T17:47:14.148Z,22.80
2022-10-20T17:52:17.783Z,32.40
2022-10-20T17:57:21.238Z,21.00
2022-10-20T18:02:24.799Z,26.20
2022-10-20T18:07:28.448Z,21.00
2022-10-20T18:12:32.038Z,20.60
2022-10-20T18:17:36.329Z,15.80
2022-10-20T18:22:40.065Z,20.70
2022-10-20T18:27:43.646Z,24.70
2022-10-20T18:32:47.253Z,15.80
2022-10-20T18:37:56.381Z,20.60
2022-10-20T18:43:02.874Z,22.50
2022-10-20T18:48:06.685Z,24.80
2022-10-20T18:53:10.333Z,30.00
2022-10-20T18:58:14.023Z,30.00
2022-10-20T19:03:17.614Z,24.50
2022-10-20T19:08:21.271Z,30.90
2022-10-20T19:13:26.892Z,29.30
2022-10-20T19:18:30.674Z,27.30
2022-10-20T19:23:39.901Z,24.30
2022-10-20T19:28:50.082Z,31.40
2022-10-20T19:34:00.455Z,36.70
2022-10-20T19:39:08.279Z,39.30
2022-10-20T19:44:12.881Z,21.40
2022-10-20T19:49:16.421Z,20.00
2022-10-20T19:54:20.067Z,24.20
2022-10-20T19:59:23.640Z,26.70
2022-10-20T20:04:27.199Z,32.50
2022-10-20T20:09:31.473Z,30.70
2022-10-20T20:14:34.980Z,20.70
2022-10-20T20:19:38.695Z,20.40
2022-10-20T20:24:42.622Z,18.00
2022-10-20T20:29:46.106Z,19.60
2022-10-20T20:34:49.616Z,18.30
2022-10-20T20:39:53.240Z,15.80
2022-10-20T20:44:56.845Z,16.50
2022-10-20T20:50:01.082Z,14.00
2022-10-20T20:55:05.777Z,13.80
2022-10-20T21:00:10.652Z,12.90
2022-10-20T21:05:14.320Z,14.40
2022-10-20T21:10:18.191Z,13.10
2022-10-20T21:15:22.195Z,10.40
2022-10-20T21:20:26.099Z,11.40
2022-10-20T21:25:29.583Z,9.10
2022-10-20T21:30:33.127Z,10.50
2022-10-20T21:35:36.617Z,11.10
2022-10-20T21:40:40.080Z,14.10
2022-10-20T21:45:43.505Z,12.60
2022-10-20T21:50:47.061Z,12.10
2022-10-20T21:55:50.472Z,11.50
2022-10-20T22:00:55.013Z,11.70
2022-10-20T22:05:58.566Z,11.50
2022-10-20T22:11:13.005Z,12.60
2022-10-20T22:16:20.929Z,12.30
2022-10-20T22:21:25.319Z,11.90
